sensor_id;sensor_type;location;lat;lon;timestamp;P1;durP1;ratioP1;P2;durP2;ratioP2
37777;SDS011;23615;51.506;7.678;2023-07-20T00:00:23;4.73;;;3.17;;
37777;SDS011;23615;51.506;7.678;2023-07-20T00:02:50;5.47;;;3.37;;
37777;SDS011;23615;51.506;7.678;2023-07-20T00:05:16;3.42;;;2.70;;
37777;SDS011;23615;51.506;7.678;2023-07-20T00:07:43;3.45;;;2.92;;
37777;SDS011;23615;51.506;7.678;2023-07-20T00:10:09;3.97;;;3.13;;
37777;SDS011;23615;51.506;7.678;2023-07-20T00:12:34;4.70;;;3.70;;
37777;SDS011;23615;51.506;7.678;2023-07-20T00:14:59;4.10;;;3.50;;
37777;SDS011;23615;51.506;7.678;2023-07-20T00:17:25;3.58;;;3.22;;
37777;SDS011;23615;51.506;7.678;2023-07-20T00:19:50;2.50;;;2.30;;
37777;SDS011;23615;51.506;7.678;2023-07-20T00:22:15;4.00;;;3.17;;
37777;SDS011;23615;51.506;7.678;2023-07-20T00:24:41;4.97;;;3.85;;
37777;SDS011;23615;51.506;7.678;2023-07-20T00:27:06;4.23;;;3.03;;
37777;SDS011;23615;51.506;7.678;2023-07-20T00:29:31;3.20;;;2.90;;
37777;SDS011;23615;51.506;7.678;2023-07-20T00:31:56;5.27;;;3.30;;
37777;SDS011;23615;51.506;7.678;2023-07-20T00:34:23;2.92;;;2.40;;
37777;SDS011;23615;51.506;7.678;2023-07-20T00:36:48;3.40;;;2.90;;
37777;SDS011;23615;51.506;7.678;2023-07-20T00:39:14;3.83;;;3.40;;
37777;SDS011;23615;51.506;7.678;2023-07-20T00:41:39;6.03;;;4.13;;
37777;SDS011;23615;51.506;7.678;2023-07-20T00:44:05;3.60;;;2.83;;
37777;SDS011;23615;51.506;7.678;2023-07-20T00:46:30;4.20;;;3.80;;
37777;SDS011;23615;51.506;7.678;2023-07-20T00:48:57;5.03;;;4.53;;
37777;SDS011;23615;51.506;7.678;2023-07-20T00:51:23;5.32;;;4.72;;
37777;SDS011;23615;51.506;7.678;2023-07-20T00:53:51;5.60;;;4.88;;
37777;SDS011;23615;51.506;7.678;2023-07-20T00:56:17;6.20;;;4.65;;
37777;SDS011;23615;51.506;7.678;2023-07-20T00:58:43;7.40;;;6.20;;
37777;SDS011;23615;51.506;7.678;2023-07-20T01:01:08;10.47;;;6.17;;
37777;SDS011;23615;51.506;7.678;2023-07-20T01:03:34;7.10;;;6.10;;
37777;SDS011;23615;51.506;7.678;2023-07-20T01:08:43;7.20;;;6.47;;
37777;SDS011;23615;51.506;7.678;2023-07-20T01:11:22;8.50;;;5.83;;
37777;SDS011;23615;51.506;7.678;2023-07-20T01:13:58;5.20;;;4.60;;
37777;SDS011;23615;51.506;7.678;2023-07-20T01:16:24;7.70;;;6.15;;
37777;SDS011;23615;51.506;7.678;2023-07-20T01:18:49;8.93;;;6.70;;
37777;SDS011;23615;51.506;7.678;2023-07-20T01:21:18;6.80;;;6.10;;
37777;SDS011;23615;51.506;7.678;2023-07-20T01:26:49;6.30;;;5.63;;
37777;SDS011;23615;51.506;7.678;2023-07-20T01:32:16;7.47;;;5.93;;
37777;SDS011;23615;51.506;7.678;2023-07-20T01:34:42;6.13;;;5.20;;
37777;SDS011;23615;51.506;7.678;2023-07-20T01:37:09;7.47;;;5.82;;
37777;SDS011;23615;51.506;7.678;2023-07-20T01:39:35;7.03;;;5.63;;
37777;SDS011;23615;51.506;7.678;2023-07-20T01:42:02;7.22;;;5.80;;
37777;SDS011;23615;51.506;7.678;2023-07-20T01:44:27;5.70;;;5.10;;
37777;SDS011;23615;51.506;7.678;2023-07-20T01:46:54;9.00;;;6.40;;
37777;SDS011;23615;51.506;7.678;2023-07-20T01:49:19;9.07;;;6.50;;
37777;SDS011;23615;51.506;7.678;2023-07-20T01:51:44;7.93;;;6.53;;
37777;SDS011;23615;51.506;7.678;2023-07-20T01:54:09;6.87;;;5.47;;
37777;SDS011;23615;51.506;7.678;2023-07-20T01:59:31;8.35;;;6.57;;
37777;SDS011;23615;51.506;7.678;2023-07-20T02:01:56;6.90;;;5.60;;
37777;SDS011;23615;51.506;7.678;2023-07-20T02:04:21;8.00;;;5.53;;
37777;SDS011;23615;51.506;7.678;2023-07-20T02:06:46;7.87;;;6.23;;
37777;SDS011;23615;51.506;7.678;2023-07-20T02:09:12;8.70;;;6.93;;
37777;SDS011;23615;51.506;7.678;2023-07-20T02:11:37;8.85;;;6.85;;
37777;SDS011;23615;51.506;7.678;2023-07-20T02:14:02;6.97;;;5.30;;
37777;SDS011;23615;51.506;7.678;2023-07-20T02:16:27;9.03;;;6.07;;
37777;SDS011;23615;51.506;7.678;2023-07-20T02:18:53;7.50;;;6.03;;
37777;SDS011;23615;51.506;7.678;2023-07-20T02:21:18;8.43;;;6.90;;
37777;SDS011;23615;51.506;7.678;2023-07-20T02:23:43;7.10;;;6.30;;
37777;SDS011;23615;51.506;7.678;2023-07-20T02:26:09;7.90;;;6.50;;
37777;SDS011;23615;51.506;7.678;2023-07-20T02:28:34;8.93;;;5.60;;
37777;SDS011;23615;51.506;7.678;2023-07-20T02:30:59;7.60;;;6.67;;
37777;SDS011;23615;51.506;7.678;2023-07-20T02:33:25;6.70;;;6.10;;
37777;SDS011;23615;51.506;7.678;2023-07-20T02:35:51;6.05;;;5.30;;
37777;SDS011;23615;51.506;7.678;2023-07-20T02:38:17;5.88;;;5.00;;
37777;SDS011;23615;51.506;7.678;2023-07-20T02:40:42;6.70;;;6.07;;
37777;SDS011;23615;51.506;7.678;2023-07-20T02:43:07;11.23;;;7.23;;
37777;SDS011;23615;51.506;7.678;2023-07-20T02:45:33;7.40;;;6.18;;
37777;SDS011;23615;51.506;7.678;2023-07-20T02:47:59;8.73;;;6.23;;
37777;SDS011;23615;51.506;7.678;2023-07-20T02:50:24;8.57;;;7.00;;
37777;SDS011;23615;51.506;7.678;2023-07-20T02:52:49;9.53;;;7.90;;
37777;SDS011;23615;51.506;7.678;2023-07-20T02:55:15;10.15;;;7.80;;
37777;SDS011;23615;51.506;7.678;2023-07-20T02:57:40;6.72;;;6.03;;
37777;SDS011;23615;51.506;7.678;2023-07-20T03:00:06;8.93;;;7.43;;
37777;SDS011;23615;51.506;7.678;2023-07-20T03:02:32;8.73;;;7.18;;
37777;SDS011;23615;51.506;7.678;2023-07-20T03:04:57;15.85;;;8.38;;
37777;SDS011;23615;51.506;7.678;2023-07-20T03:07:26;14.57;;;8.40;;
37777;SDS011;23615;51.506;7.678;2023-07-20T03:09:53;13.98;;;8.65;;
37777;SDS011;23615;51.506;7.678;2023-07-20T03:12:18;13.70;;;9.03;;
37777;SDS011;23615;51.506;7.678;2023-07-20T03:14:43;12.05;;;7.70;;
37777;SDS011;23615;51.506;7.678;2023-07-20T03:17:08;11.73;;;8.83;;
37777;SDS011;23615;51.506;7.678;2023-07-20T03:19:34;13.67;;;9.80;;
37777;SDS011;23615;51.506;7.678;2023-07-20T03:21:59;11.60;;;8.10;;
37777;SDS011;23615;51.506;7.678;2023-07-20T03:24:24;9.67;;;8.07;;
37777;SDS011;23615;51.506;7.678;2023-07-20T03:26:50;10.32;;;7.40;;
37777;SDS011;23615;51.506;7.678;2023-07-20T03:29:16;10.23;;;6.43;;
37777;SDS011;23615;51.506;7.678;2023-07-20T03:31:41;6.37;;;5.07;;
37777;SDS011;23615;51.506;7.678;2023-07-20T03:34:06;6.37;;;5.30;;
37777;SDS011;23615;51.506;7.678;2023-07-20T03:36:33;6.07;;;4.80;;
37777;SDS011;23615;51.506;7.678;2023-07-20T03:38:59;7.13;;;5.07;;
37777;SDS011;23615;51.506;7.678;2023-07-20T03:41:24;5.20;;;4.67;;
37777;SDS011;23615;51.506;7.678;2023-07-20T03:43:49;7.30;;;5.00;;
37777;SDS011;23615;51.506;7.678;2023-07-20T03:46:15;6.03;;;4.88;;
37777;SDS011;23615;51.506;7.678;2023-07-20T03:48:40;5.22;;;4.72;;
37777;SDS011;23615;51.506;7.678;2023-07-20T03:51:06;6.77;;;5.27;;
37777;SDS011;23615;51.506;7.678;2023-07-20T03:53:31;6.37;;;5.23;;
37777;SDS011;23615;51.506;7.678;2023-07-20T03:55:57;5.53;;;4.93;;
37777;SDS011;23615;51.506;7.678;2023-07-20T03:58:22;11.13;;;6.10;;
37777;SDS011;23615;51.506;7.678;2023-07-20T04:00:49;5.00;;;4.50;;
37777;SDS011;23615;51.506;7.678;2023-07-20T04:03:15;5.93;;;4.72;;
37777;SDS011;23615;51.506;7.678;2023-07-20T04:05:41;7.43;;;5.83;;
37777;SDS011;23615;51.506;7.678;2023-07-20T04:08:07;7.72;;;6.30;;
37777;SDS011;23615;51.506;7.678;2023-07-20T04:10:32;6.43;;;5.73;;
37777;SDS011;23615;51.506;7.678;2023-07-20T04:12:58;7.17;;;6.17;;
37777;SDS011;23615;51.506;7.678;2023-07-20T04:15:23;5.97;;;5.37;;
37777;SDS011;23615;51.506;7.678;2023-07-20T04:17:48;7.93;;;6.47;;
37777;SDS011;23615;51.506;7.678;2023-07-20T04:20:14;8.48;;;6.55;;
37777;SDS011;23615;51.506;7.678;2023-07-20T04:22:39;7.50;;;6.00;;
37777;SDS011;23615;51.506;7.678;2023-07-20T04:25:05;8.70;;;5.83;;
37777;SDS011;23615;51.506;7.678;2023-07-20T04:27:30;7.83;;;6.40;;
37777;SDS011;23615;51.506;7.678;2023-07-20T04:29:57;7.37;;;5.97;;
37777;SDS011;23615;51.506;7.678;2023-07-20T04:32:24;9.07;;;6.65;;
37777;SDS011;23615;51.506;7.678;2023-07-20T04:34:50;8.00;;;6.60;;
37777;SDS011;23615;51.506;7.678;2023-07-20T04:37:15;7.70;;;6.90;;
37777;SDS011;23615;51.506;7.678;2023-07-20T04:39:40;8.13;;;6.43;;
37777;SDS011;23615;51.506;7.678;2023-07-20T04:42:06;12.17;;;8.43;;
37777;SDS011;23615;51.506;7.678;2023-07-20T04:44:31;8.20;;;7.40;;
37777;SDS011;23615;51.506;7.678;2023-07-20T04:46:56;7.30;;;6.60;;
37777;SDS011;23615;51.506;7.678;2023-07-20T04:49:21;6.97;;;6.27;;
37777;SDS011;23615;51.506;7.678;2023-07-20T04:51:47;8.23;;;7.47;;
37777;SDS011;23615;51.506;7.678;2023-07-20T04:54:12;8.27;;;6.83;;
37777;SDS011;23615;51.506;7.678;2023-07-20T04:56:38;5.63;;;5.20;;
37777;SDS011;23615;51.506;7.678;2023-07-20T04:59:04;9.07;;;8.17;;
37777;SDS011;23615;51.506;7.678;2023-07-20T05:01:29;7.07;;;6.47;;
37777;SDS011;23615;51.506;7.678;2023-07-20T05:03:54;9.73;;;8.83;;
37777;SDS011;23615;51.506;7.678;2023-07-20T05:06:19;9.63;;;8.73;;
37777;SDS011;23615;51.506;7.678;2023-07-20T05:08:45;9.70;;;8.80;;
37777;SDS011;23615;51.506;7.678;2023-07-20T05:11:10;11.70;;;9.70;;
37777;SDS011;23615;51.506;7.678;2023-07-20T05:13:36;10.77;;;9.73;;
37777;SDS011;23615;51.506;7.678;2023-07-20T05:16:02;13.90;;;11.60;;
37777;SDS011;23615;51.506;7.678;2023-07-20T05:18:27;14.07;;;11.97;;
37777;SDS011;23615;51.506;7.678;2023-07-20T05:20:52;12.43;;;11.33;;
37777;SDS011;23615;51.506;7.678;2023-07-20T05:23:20;14.25;;;12.75;;
37777;SDS011;23615;51.506;7.678;2023-07-20T05:25:46;12.35;;;11.15;;
37777;SDS011;23615;51.506;7.678;2023-07-20T05:28:12;10.05;;;9.07;;
37777;SDS011;23615;51.506;7.678;2023-07-20T05:30:37;11.07;;;9.75;;
37777;SDS011;23615;51.506;7.678;2023-07-20T05:33:02;11.73;;;10.47;;
37777;SDS011;23615;51.506;7.678;2023-07-20T05:35:28;10.17;;;9.27;;
37777;SDS011;23615;51.506;7.678;2023-07-20T05:37:53;10.37;;;9.27;;
37777;SDS011;23615;51.506;7.678;2023-07-20T05:40:18;10.45;;;9.38;;
37777;SDS011;23615;51.506;7.678;2023-07-20T05:42:47;9.02;;;8.18;;
37777;SDS011;23615;51.506;7.678;2023-07-20T05:45:16;10.47;;;8.40;;
37777;SDS011;23615;51.506;7.678;2023-07-20T05:47:42;9.47;;;7.30;;
37777;SDS011;23615;51.506;7.678;2023-07-20T05:50:07;8.40;;;7.37;;
37777;SDS011;23615;51.506;7.678;2023-07-20T05:52:34;6.43;;;5.82;;
37777;SDS011;23615;51.506;7.678;2023-07-20T05:54:59;6.45;;;5.85;;
37777;SDS011;23615;51.506;7.678;2023-07-20T05:57:24;5.63;;;5.13;;
37777;SDS011;23615;51.506;7.678;2023-07-20T05:59:49;5.43;;;4.93;;
37777;SDS011;23615;51.506;7.678;2023-07-20T06:02:15;5.87;;;4.60;;
37777;SDS011;23615;51.506;7.678;2023-07-20T06:04:41;6.35;;;4.72;;
37777;SDS011;23615;51.506;7.678;2023-07-20T06:07:06;5.93;;;5.43;;
37777;SDS011;23615;51.506;7.678;2023-07-20T06:09:32;4.72;;;4.32;;
37777;SDS011;23615;51.506;7.678;2023-07-20T06:11:58;5.45;;;4.95;;
37777;SDS011;23615;51.506;7.678;2023-07-20T06:14:23;5.73;;;4.93;;
37777;SDS011;23615;51.506;7.678;2023-07-20T06:16:49;4.70;;;4.30;;
37777;SDS011;23615;51.506;7.678;2023-07-20T06:19:14;5.83;;;5.20;;
37777;SDS011;23615;51.506;7.678;2023-07-20T06:21:40;5.43;;;4.70;;
37777;SDS011;23615;51.506;7.678;2023-07-20T06:24:06;5.25;;;4.68;;
37777;SDS011;23615;51.506;7.678;2023-07-20T06:26:31;5.40;;;4.90;;
37777;SDS011;23615;51.506;7.678;2023-07-20T06:29:03;5.50;;;5.00;;
37777;SDS011;23615;51.506;7.678;2023-07-20T06:31:28;5.37;;;4.83;;
37777;SDS011;23615;51.506;7.678;2023-07-20T06:33:53;5.47;;;4.97;;
37777;SDS011;23615;51.506;7.678;2023-07-20T06:36:18;6.70;;;4.50;;
37777;SDS011;23615;51.506;7.678;2023-07-20T06:38:44;5.30;;;4.73;;
37777;SDS011;23615;51.506;7.678;2023-07-20T06:41:09;4.70;;;4.17;;
37777;SDS011;23615;51.506;7.678;2023-07-20T06:43:34;4.87;;;4.47;;
37777;SDS011;23615;51.506;7.678;2023-07-20T06:46:00;4.55;;;3.80;;
37777;SDS011;23615;51.506;7.678;2023-07-20T06:48:25;4.13;;;3.73;;
37777;SDS011;23615;51.506;7.678;2023-07-20T06:50:50;4.60;;;4.20;;
37777;SDS011;23615;51.506;7.678;2023-07-20T06:53:16;5.10;;;3.40;;
37777;SDS011;23615;51.506;7.678;2023-07-20T06:55:42;3.33;;;2.88;;
37777;SDS011;23615;51.506;7.678;2023-07-20T06:58:07;2.90;;;2.60;;
37777;SDS011;23615;51.506;7.678;2023-07-20T07:00:32;2.63;;;2.33;;
37777;SDS011;23615;51.506;7.678;2023-07-20T07:02:58;3.23;;;2.70;;
37777;SDS011;23615;51.506;7.678;2023-07-20T07:05:23;3.22;;;3.03;;
37777;SDS011;23615;51.506;7.678;2023-07-20T07:07:48;3.77;;;3.47;;
37777;SDS011;23615;51.506;7.678;2023-07-20T07:10:14;4.30;;;3.90;;
37777;SDS011;23615;51.506;7.678;2023-07-20T07:12:39;4.73;;;3.87;;
37777;SDS011;23615;51.506;7.678;2023-07-20T07:15:05;4.60;;;3.40;;
37777;SDS011;23615;51.506;7.678;2023-07-20T07:17:33;3.20;;;2.90;;
37777;SDS011;23615;51.506;7.678;2023-07-20T07:19:59;2.40;;;2.20;;
37777;SDS011;23615;51.506;7.678;2023-07-20T07:22:24;2.50;;;2.17;;
37777;SDS011;23615;51.506;7.678;2023-07-20T07:24:50;2.30;;;1.90;;
37777;SDS011;23615;51.506;7.678;2023-07-20T07:27:15;1.83;;;1.73;;
37777;SDS011;23615;51.506;7.678;2023-07-20T07:29:41;1.40;;;1.30;;
37777;SDS011;23615;51.506;7.678;2023-07-20T07:32:09;3.00;;;1.85;;
37777;SDS011;23615;51.506;7.678;2023-07-20T07:34:35;2.15;;;1.55;;
37777;SDS011;23615;51.506;7.678;2023-07-20T07:37:01;1.83;;;1.10;;
37777;SDS011;23615;51.506;7.678;2023-07-20T07:39:26;1.15;;;1.00;;
37777;SDS011;23615;51.506;7.678;2023-07-20T07:41:51;1.60;;;0.90;;
37777;SDS011;23615;51.506;7.678;2023-07-20T07:44:17;0.80;;;0.80;;
37777;SDS011;23615;51.506;7.678;2023-07-20T07:46:43;1.40;;;0.50;;
37777;SDS011;23615;51.506;7.678;2023-07-20T07:49:08;0.70;;;0.60;;
37777;SDS011;23615;51.506;7.678;2023-07-20T07:51:33;1.13;;;0.90;;
37777;SDS011;23615;51.506;7.678;2023-07-20T07:53:59;1.75;;;0.95;;
37777;SDS011;23615;51.506;7.678;2023-07-20T07:56:24;0.70;;;0.70;;
37777;SDS011;23615;51.506;7.678;2023-07-20T07:58:49;3.13;;;2.10;;
37777;SDS011;23615;51.506;7.678;2023-07-20T08:01:16;2.67;;;1.87;;
37777;SDS011;23615;51.506;7.678;2023-07-20T08:03:43;1.70;;;1.23;;
37777;SDS011;23615;51.506;7.678;2023-07-20T08:06:11;1.10;;;1.00;;
37777;SDS011;23615;51.506;7.678;2023-07-20T08:08:36;1.48;;;1.38;;
37777;SDS011;23615;51.506;7.678;2023-07-20T08:11:02;1.37;;;0.83;;
37777;SDS011;23615;51.506;7.678;2023-07-20T08:13:27;1.37;;;1.27;;
37777;SDS011;23615;51.506;7.678;2023-07-20T08:15:52;2.40;;;2.20;;
37777;SDS011;23615;51.506;7.678;2023-07-20T08:18:18;1.48;;;1.35;;
37777;SDS011;23615;51.506;7.678;2023-07-20T08:20:44;1.25;;;1.15;;
37777;SDS011;23615;51.506;7.678;2023-07-20T08:23:09;1.73;;;1.42;;
37777;SDS011;23615;51.506;7.678;2023-07-20T08:25:40;1.00;;;0.60;;
37777;SDS011;23615;51.506;7.678;2023-07-20T08:28:09;1.48;;;0.70;;
37777;SDS011;23615;51.506;7.678;2023-07-20T08:30:39;1.70;;;0.73;;
37777;SDS011;23615;51.506;7.678;2023-07-20T08:33:05;0.90;;;0.52;;
37777;SDS011;23615;51.506;7.678;2023-07-20T08:35:30;1.70;;;0.40;;
37777;SDS011;23615;51.506;7.678;2023-07-20T08:37:56;0.40;;;0.33;;
37777;SDS011;23615;51.506;7.678;2023-07-20T08:40:21;0.80;;;0.20;;
37777;SDS011;23615;51.506;7.678;2023-07-20T08:42:46;1.23;;;0.20;;
37777;SDS011;23615;51.506;7.678;2023-07-20T08:45:12;0.50;;;0.20;;
37777;SDS011;23615;51.506;7.678;2023-07-20T08:47:38;0.50;;;0.20;;
37777;SDS011;23615;51.506;7.678;2023-07-20T08:50:07;0.35;;;0.22;;
37777;SDS011;23615;51.506;7.678;2023-07-20T08:52:33;0.20;;;0.20;;
37777;SDS011;23615;51.506;7.678;2023-07-20T08:54:59;0.55;;;0.20;;
37777;SDS011;23615;51.506;7.678;2023-07-20T08:57:28;0.30;;;0.20;;
37777;SDS011;23615;51.506;7.678;2023-07-20T08:59:54;0.77;;;0.10;;
37777;SDS011;23615;51.506;7.678;2023-07-20T09:02:19;0.30;;;0.30;;
37777;SDS011;23615;51.506;7.678;2023-07-20T09:04:50;0.20;;;0.20;;
37777;SDS011;23615;51.506;7.678;2023-07-20T09:07:15;0.60;;;0.20;;
37777;SDS011;23615;51.506;7.678;2023-07-20T09:09:40;0.70;;;0.30;;
37777;SDS011;23615;51.506;7.678;2023-07-20T09:12:15;1.80;;;0.20;;
37777;SDS011;23615;51.506;7.678;2023-07-20T09:14:42;0.20;;;0.20;;
37777;SDS011;23615;51.506;7.678;2023-07-20T09:17:08;0.33;;;0.20;;
37777;SDS011;23615;51.506;7.678;2023-07-20T09:19:38;0.80;;;0.20;;
37777;SDS011;23615;51.506;7.678;2023-07-20T09:22:03;1.70;;;0.30;;
37777;SDS011;23615;51.506;7.678;2023-07-20T09:24:30;0.28;;;0.10;;
37777;SDS011;23615;51.506;7.678;2023-07-20T09:26:57;1.00;;;0.40;;
37777;SDS011;23615;51.506;7.678;2023-07-20T09:29:22;1.30;;;0.40;;
37777;SDS011;23615;51.506;7.678;2023-07-20T09:32:00;0.70;;;0.23;;
37777;SDS011;23615;51.506;7.678;2023-07-20T09:34:32;0.70;;;0.20;;
37777;SDS011;23615;51.506;7.678;2023-07-20T09:36:58;0.85;;;0.30;;
37777;SDS011;23615;51.506;7.678;2023-07-20T09:39:24;0.88;;;0.30;;
37777;SDS011;23615;51.506;7.678;2023-07-20T09:41:50;0.57;;;0.20;;
37777;SDS011;23615;51.506;7.678;2023-07-20T09:44:16;0.60;;;0.10;;
37777;SDS011;23615;51.506;7.678;2023-07-20T09:46:48;1.30;;;0.20;;
37777;SDS011;23615;51.506;7.678;2023-07-20T09:49:16;1.10;;;0.20;;
37777;SDS011;23615;51.506;7.678;2023-07-20T09:51:42;0.20;;;0.20;;
37777;SDS011;23615;51.506;7.678;2023-07-20T09:54:09;0.85;;;0.30;;
37777;SDS011;23615;51.506;7.678;2023-07-20T09:56:35;0.25;;;0.25;;
37777;SDS011;23615;51.506;7.678;2023-07-20T09:59:03;0.30;;;0.20;;
37777;SDS011;23615;51.506;7.678;2023-07-20T10:01:29;1.33;;;0.43;;
37777;SDS011;23615;51.506;7.678;2023-07-20T10:03:57;0.57;;;0.50;;
37777;SDS011;23615;51.506;7.678;2023-07-20T10:06:24;0.50;;;0.50;;
37777;SDS011;23615;51.506;7.678;2023-07-20T10:08:55;0.20;;;0.10;;
37777;SDS011;23615;51.506;7.678;2023-07-20T10:11:26;2.63;;;0.50;;
37777;SDS011;23615;51.506;7.678;2023-07-20T10:13:55;0.98;;;0.32;;
37777;SDS011;23615;51.506;7.678;2023-07-20T10:16:31;0.60;;;0.50;;
37777;SDS011;23615;51.506;7.678;2023-07-20T10:21:59;1.05;;;0.90;;
37777;SDS011;23615;51.506;7.678;2023-07-20T10:24:32;1.30;;;1.20;;
37777;SDS011;23615;51.506;7.678;2023-07-20T10:26:59;1.98;;;0.73;;
37777;SDS011;23615;51.506;7.678;2023-07-20T10:29:24;0.50;;;0.50;;
37777;SDS011;23615;51.506;7.678;2023-07-20T10:31:52;1.42;;;0.70;;
37777;SDS011;23615;51.506;7.678;2023-07-20T10:34:19;1.50;;;0.70;;
37777;SDS011;23615;51.506;7.678;2023-07-20T10:36:44;1.00;;;1.00;;
37777;SDS011;23615;51.506;7.678;2023-07-20T10:42:11;0.85;;;0.70;;
37777;SDS011;23615;51.506;7.678;2023-07-20T10:44:37;1.00;;;0.57;;
37777;SDS011;23615;51.506;7.678;2023-07-20T10:47:08;0.73;;;0.40;;
37777;SDS011;23615;51.506;7.678;2023-07-20T10:49:35;1.20;;;0.90;;
37777;SDS011;23615;51.506;7.678;2023-07-20T10:52:20;1.10;;;1.00;;
37777;SDS011;23615;51.506;7.678;2023-07-20T10:54:46;1.07;;;0.97;;
37777;SDS011;23615;51.506;7.678;2023-07-20T10:57:30;2.35;;;1.10;;
37777;SDS011;23615;51.506;7.678;2023-07-20T11:00:09;0.75;;;0.60;;
37777;SDS011;23615;51.506;7.678;2023-07-20T11:02:49;0.60;;;0.60;;
37777;SDS011;23615;51.506;7.678;2023-07-20T11:11:20;0.30;;;0.20;;
37777;SDS011;23615;51.506;7.678;2023-07-20T11:14:00;0.67;;;0.10;;
37777;SDS011;23615;51.506;7.678;2023-07-20T11:16:37;0.03;;;0.03;;
37777;SDS011;23615;51.506;7.678;2023-07-20T11:19:19;0.35;;;0.15;;
37777;SDS011;23615;51.506;7.678;2023-07-20T11:21:57;0.28;;;0.10;;
37777;SDS011;23615;51.506;7.678;2023-07-20T11:24:23;0.50;;;0.10;;
37777;SDS011;23615;51.506;7.678;2023-07-20T11:26:50;0.10;;;0.00;;
37777;SDS011;23615;51.506;7.678;2023-07-20T11:29:17;0.77;;;0.00;;
37777;SDS011;23615;51.506;7.678;2023-07-20T11:31:43;0.37;;;0.03;;
37777;SDS011;23615;51.506;7.678;2023-07-20T11:34:11;0.10;;;0.00;;
37777;SDS011;23615;51.506;7.678;2023-07-20T11:36:38;0.37;;;0.10;;
37777;SDS011;23615;51.506;7.678;2023-07-20T11:39:06;1.35;;;0.10;;
37777;SDS011;23615;51.506;7.678;2023-07-20T11:41:34;0.85;;;0.10;;
37777;SDS011;23615;51.506;7.678;2023-07-20T11:43:59;1.00;;;0.20;;
37777;SDS011;23615;51.506;7.678;2023-07-20T11:46:25;0.50;;;0.10;;
37777;SDS011;23615;51.506;7.678;2023-07-20T11:48:55;1.50;;;0.10;;
37777;SDS011;23615;51.506;7.678;2023-07-20T11:51:22;0.00;;;0.00;;
37777;SDS011;23615;51.506;7.678;2023-07-20T11:53:47;0.10;;;0.10;;
37777;SDS011;23615;51.506;7.678;2023-07-20T11:56:13;0.30;;;0.10;;
37777;SDS011;23615;51.506;7.678;2023-07-20T11:58:42;0.50;;;0.10;;
37777;SDS011;23615;51.506;7.678;2023-07-20T12:01:11;0.20;;;0.10;;
37777;SDS011;23615;51.506;7.678;2023-07-20T12:03:38;0.20;;;0.10;;
37777;SDS011;23615;51.506;7.678;2023-07-20T12:06:07;0.20;;;0.10;;
37777;SDS011;23615;51.506;7.678;2023-07-20T12:08:33;0.10;;;0.10;;
37777;SDS011;23615;51.506;7.678;2023-07-20T12:10:58;0.97;;;0.10;;
37777;SDS011;23615;51.506;7.678;2023-07-20T12:13:24;0.10;;;0.10;;
37777;SDS011;23615;51.506;7.678;2023-07-20T12:16:06;0.00;;;0.00;;
37777;SDS011;23615;51.506;7.678;2023-07-20T12:18:36;1.63;;;0.05;;
37777;SDS011;23615;51.506;7.678;2023-07-20T12:21:02;2.10;;;0.10;;
37777;SDS011;23615;51.506;7.678;2023-07-20T12:23:34;0.10;;;0.10;;
37777;SDS011;23615;51.506;7.678;2023-07-20T12:26:00;1.00;;;0.10;;
37777;SDS011;23615;51.506;7.678;2023-07-20T12:28:25;0.80;;;0.10;;
37777;SDS011;23615;51.506;7.678;2023-07-20T12:30:51;0.30;;;0.20;;
37777;SDS011;23615;51.506;7.678;2023-07-20T12:33:21;0.20;;;0.10;;
37777;SDS011;23615;51.506;7.678;2023-07-20T12:35:46;0.75;;;0.20;;
37777;SDS011;23615;51.506;7.678;2023-07-20T12:38:12;0.63;;;0.20;;
37777;SDS011;23615;51.506;7.678;2023-07-20T12:40:37;1.38;;;0.20;;
37777;SDS011;23615;51.506;7.678;2023-07-20T12:43:02;0.30;;;0.10;;
37777;SDS011;23615;51.506;7.678;2023-07-20T12:45:28;0.65;;;0.10;;
37777;SDS011;23615;51.506;7.678;2023-07-20T12:47:54;0.10;;;0.10;;
37777;SDS011;23615;51.506;7.678;2023-07-20T12:50:19;0.50;;;0.10;;
37777;SDS011;23615;51.506;7.678;2023-07-20T12:52:44;0.30;;;0.10;;
37777;SDS011;23615;51.506;7.678;2023-07-20T12:55:10;0.20;;;0.20;;
37777;SDS011;23615;51.506;7.678;2023-07-20T12:57:35;0.52;;;0.00;;
37777;SDS011;23615;51.506;7.678;2023-07-20T13:00:02;0.03;;;0.00;;
37777;SDS011;23615;51.506;7.678;2023-07-20T13:02:32;0.68;;;0.20;;
37777;SDS011;23615;51.506;7.678;2023-07-20T13:04:58;0.35;;;0.10;;
37777;SDS011;23615;51.506;7.678;2023-07-20T13:07:30;0.80;;;0.20;;
37777;SDS011;23615;51.506;7.678;2023-07-20T13:10:00;0.40;;;0.13;;
37777;SDS011;23615;51.506;7.678;2023-07-20T13:12:26;0.10;;;0.10;;
37777;SDS011;23615;51.506;7.678;2023-07-20T13:14:52;0.40;;;0.20;;
37777;SDS011;23615;51.506;7.678;2023-07-20T13:17:19;0.60;;;0.20;;
37777;SDS011;23615;51.506;7.678;2023-07-20T13:19:44;0.20;;;0.20;;
37777;SDS011;23615;51.506;7.678;2023-07-20T13:22:10;0.90;;;0.28;;
37777;SDS011;23615;51.506;7.678;2023-07-20T13:24:35;0.10;;;0.10;;
37777;SDS011;23615;51.506;7.678;2023-07-20T13:27:01;0.30;;;0.20;;
37777;SDS011;23615;51.506;7.678;2023-07-20T13:29:26;0.20;;;0.20;;
37777;SDS011;23615;51.506;7.678;2023-07-20T13:31:51;0.10;;;0.10;;
37777;SDS011;23615;51.506;7.678;2023-07-20T13:34:16;3.40;;;0.50;;
37777;SDS011;23615;51.506;7.678;2023-07-20T13:36:42;0.50;;;0.20;;
37777;SDS011;23615;51.506;7.678;2023-07-20T13:39:07;0.30;;;0.20;;
37777;SDS011;23615;51.506;7.678;2023-07-20T13:41:33;0.10;;;0.10;;
37777;SDS011;23615;51.506;7.678;2023-07-20T13:43:59;0.10;;;0.10;;
37777;SDS011;23615;51.506;7.678;2023-07-20T13:46:24;0.40;;;0.10;;
37777;SDS011;23615;51.506;7.678;2023-07-20T13:48:50;0.10;;;0.10;;
37777;SDS011;23615;51.506;7.678;2023-07-20T13:51:15;0.37;;;0.20;;
37777;SDS011;23615;51.506;7.678;2023-07-20T13:53:40;0.40;;;0.10;;
37777;SDS011;23615;51.506;7.678;2023-07-20T13:56:06;0.70;;;0.20;;
37777;SDS011;23615;51.506;7.678;2023-07-20T13:58:32;0.10;;;0.10;;
37777;SDS011;23615;51.506;7.678;2023-07-20T14:00:57;1.05;;;0.20;;
37777;SDS011;23615;51.506;7.678;2023-07-20T14:03:23;0.50;;;0.10;;
37777;SDS011;23615;51.506;7.678;2023-07-20T14:05:48;0.15;;;0.10;;
37777;SDS011;23615;51.506;7.678;2023-07-20T14:08:15;0.38;;;0.10;;
37777;SDS011;23615;51.506;7.678;2023-07-20T14:10:43;0.57;;;0.30;;
37777;SDS011;23615;51.506;7.678;2023-07-20T14:13:14;0.20;;;0.10;;
37777;SDS011;23615;51.506;7.678;2023-07-20T14:15:39;0.67;;;0.10;;
37777;SDS011;23615;51.506;7.678;2023-07-20T14:18:05;0.10;;;0.10;;
37777;SDS011;23615;51.506;7.678;2023-07-20T14:20:30;0.30;;;0.20;;
37777;SDS011;23615;51.506;7.678;2023-07-20T14:22:55;0.10;;;0.10;;
37777;SDS011;23615;51.506;7.678;2023-07-20T14:25:21;0.10;;;0.10;;
37777;SDS011;23615;51.506;7.678;2023-07-20T14:27:46;0.10;;;0.10;;
37777;SDS011;23615;51.506;7.678;2023-07-20T14:30:11;0.10;;;0.10;;
37777;SDS011;23615;51.506;7.678;2023-07-20T14:32:37;0.50;;;0.10;;
37777;SDS011;23615;51.506;7.678;2023-07-20T14:35:03;0.20;;;0.10;;
37777;SDS011;23615;51.506;7.678;2023-07-20T14:37:29;0.20;;;0.20;;
37777;SDS011;23615;51.506;7.678;2023-07-20T14:39:54;0.20;;;0.10;;
37777;SDS011;23615;51.506;7.678;2023-07-20T14:42:19;0.27;;;0.10;;
37777;SDS011;23615;51.506;7.678;2023-07-20T14:44:44;0.10;;;0.10;;
37777;SDS011;23615;51.506;7.678;2023-07-20T14:47:10;0.10;;;0.10;;
37777;SDS011;23615;51.506;7.678;2023-07-20T14:49:35;0.10;;;0.10;;
37777;SDS011;23615;51.506;7.678;2023-07-20T14:52:01;0.30;;;0.10;;
37777;SDS011;23615;51.506;7.678;2023-07-20T14:54:27;0.60;;;0.20;;
37777;SDS011;23615;51.506;7.678;2023-07-20T14:56:53;0.20;;;0.10;;
37777;SDS011;23615;51.506;7.678;2023-07-20T14:59:18;0.63;;;0.20;;
37777;SDS011;23615;51.506;7.678;2023-07-20T15:01:44;0.95;;;0.20;;
37777;SDS011;23615;51.506;7.678;2023-07-20T15:04:13;0.20;;;0.10;;